sensor_id;sensor_type;location;lat;lon;timestamp;temperature;humidity
4530;DHT22;2277;51.626;7.516;2023-02-26T00:01:51;3.40;99.90
4530;DHT22;2277;51.626;7.516;2023-02-26T00:04:17;3.40;99.90
4530;DHT22;2277;51.626;7.516;2023-02-26T00:06:42;3.40;99.90
4530;DHT22;2277;51.626;7.516;2023-02-26T00:09:17;3.40;99.90
4530;DHT22;2277;51.626;7.516;2023-02-26T00:11:43;3.40;99.90
4530;DHT22;2277;51.626;7.516;2023-02-26T00:14:14;3.40;99.90
4530;DHT22;2277;51.626;7.516;2023-02-26T00:16:40;3.40;99.90
4530;DHT22;2277;51.626;7.516;2023-02-26T00:19:07;3.30;99.90
4530;DHT22;2277;51.626;7.516;2023-02-26T00:21:34;3.30;99.90
4530;DHT22;2277;51.626;7.516;2023-02-26T00:24:00;3.30;99.90
4530;DHT22;2277;51.626;7.516;2023-02-26T00:26:28;3.20;99.90
4530;DHT22;2277;51.626;7.516;2023-02-26T00:28:55;3.20;99.90
4530;DHT22;2277;51.626;7.516;2023-02-26T00:31:21;3.20;99.90
4530;DHT22;2277;51.626;7.516;2023-02-26T00:33:51;3.10;99.90
4530;DHT22;2277;51.626;7.516;2023-02-26T00:36:33;3.10;99.90
4530;DHT22;2277;51.626;7.516;2023-02-26T00:41:47;3.00;99.90
4530;DHT22;2277;51.626;7.516;2023-02-26T00:44:13;3.00;99.90
4530;DHT22;2277;51.626;7.516;2023-02-26T00:46:43;3.00;99.90
4530;DHT22;2277;51.626;7.516;2023-02-26T00:54:25;3.00;99.90
4530;DHT22;2277;51.626;7.516;2023-02-26T00:56:52;3.00;99.90
4530;DHT22;2277;51.626;7.516;2023-02-26T00:59:19;2.90;99.90
4530;DHT22;2277;51.626;7.516;2023-02-26T01:01:45;3.00;99.90
4530;DHT22;2277;51.626;7.516;2023-02-26T01:04:12;2.90;99.90
4530;DHT22;2277;51.626;7.516;2023-02-26T01:06:47;2.90;99.90
4530;DHT22;2277;51.626;7.516;2023-02-26T01:11:43;2.90;99.90
4530;DHT22;2277;51.626;7.516;2023-02-26T01:14:09;2.80;99.90
4530;DHT22;2277;51.626;7.516;2023-02-26T01:17:03;2.70;99.90
4530;DHT22;2277;51.626;7.516;2023-02-26T01:22:17;2.60;99.90
4530;DHT22;2277;51.626;7.516;2023-02-26T01:24:46;2.50;99.90
4530;DHT22;2277;51.626;7.516;2023-02-26T01:27:12;2.50;99.90
4530;DHT22;2277;51.626;7.516;2023-02-26T01:29:38;2.40;99.90
4530;DHT22;2277;51.626;7.516;2023-02-26T01:32:33;2.40;99.90
4530;DHT22;2277;51.626;7.516;2023-02-26T01:35:20;2.40;99.90
4530;DHT22;2277;51.626;7.516;2023-02-26T01:38:01;2.40;99.90
4530;DHT22;2277;51.626;7.516;2023-02-26T01:46:25;2.30;99.90
4530;DHT22;2277;51.626;7.516;2023-02-26T01:48:54;2.30;99.90
4530;DHT22;2277;51.626;7.516;2023-02-26T01:51:43;2.30;99.90
4530;DHT22;2277;51.626;7.516;2023-02-26T01:54:09;2.40;99.90
4530;DHT22;2277;51.626;7.516;2023-02-26T01:56:35;2.40;99.90
4530;DHT22;2277;51.626;7.516;2023-02-26T01:59:03;2.30;99.90
4530;DHT22;2277;51.626;7.516;2023-02-26T02:01:31;2.40;99.90
4530;DHT22;2277;51.626;7.516;2023-02-26T02:03:57;2.40;99.90
4530;DHT22;2277;51.626;7.516;2023-02-26T02:06:25;2.40;99.90
4530;DHT22;2277;51.626;7.516;2023-02-26T02:08:52;2.40;99.90
4530;DHT22;2277;51.626;7.516;2023-02-26T02:11:17;2.50;99.90
4530;DHT22;2277;51.626;7.516;2023-02-26T02:14:00;2.50;99.90
4530;DHT22;2277;51.626;7.516;2023-02-26T02:27:52;2.30;99.90
4530;DHT22;2277;51.626;7.516;2023-02-26T02:33:04;2.30;99.90
4530;DHT22;2277;51.626;7.516;2023-02-26T02:38:18;2.30;99.90
4530;DHT22;2277;51.626;7.516;2023-02-26T02:40:51;2.30;99.90
4530;DHT22;2277;51.626;7.516;2023-02-26T02:43:28;2.30;99.90
4530;DHT22;2277;51.626;7.516;2023-02-26T02:46:02;2.40;99.90
4530;DHT22;2277;51.626;7.516;2023-02-26T02:48:32;2.40;99.90
4530;DHT22;2277;51.626;7.516;2023-02-26T02:51:02;2.40;99.90
4530;DHT22;2277;51.626;7.516;2023-02-26T02:54:46;2.30;99.90
4530;DHT22;2277;51.626;7.516;2023-02-26T03:01:43;2.30;99.90
4530;DHT22;2277;51.626;7.516;2023-02-26T03:04:12;2.30;99.90
4530;DHT22;2277;51.626;7.516;2023-02-26T03:06:39;2.30;99.90
4530;DHT22;2277;51.626;7.516;2023-02-26T03:09:07;2.30;99.90
4530;DHT22;2277;51.626;7.516;2023-02-26T03:11:34;2.30;99.90
4530;DHT22;2277;51.626;7.516;2023-02-26T03:14:00;2.30;99.90
4530;DHT22;2277;51.626;7.516;2023-02-26T03:24:15;2.10;99.90
4530;DHT22;2277;51.626;7.516;2023-02-26T03:27:03;2.10;99.90
4530;DHT22;2277;51.626;7.516;2023-02-26T03:29:52;2.10;99.90
4530;DHT22;2277;51.626;7.516;2023-02-26T03:35:13;2.00;99.90
4530;DHT22;2277;51.626;7.516;2023-02-26T03:37:49;2.00;99.90
4530;DHT22;2277;51.626;7.516;2023-02-26T03:40:23;2.00;99.90
4530;DHT22;2277;51.626;7.516;2023-02-26T03:42:57;2.00;99.90
4530;DHT22;2277;51.626;7.516;2023-02-26T03:45:28;2.00;99.90
4530;DHT22;2277;51.626;7.516;2023-02-26T03:47:55;1.90;99.90
4530;DHT22;2277;51.626;7.516;2023-02-26T03:50:43;1.90;99.90
4530;DHT22;2277;51.626;7.516;2023-02-26T03:53:12;1.90;99.90
4530;DHT22;2277;51.626;7.516;2023-02-26T03:58:24;1.90;99.90
4530;DHT22;2277;51.626;7.516;2023-02-26T04:00:54;1.80;99.90
4530;DHT22;2277;51.626;7.516;2023-02-26T04:03:27;1.70;99.90
4530;DHT22;2277;51.626;7.516;2023-02-26T04:05:54;1.70;99.90
4530;DHT22;2277;51.626;7.516;2023-02-26T04:08:21;1.70;99.90
4530;DHT22;2277;51.626;7.516;2023-02-26T04:11:05;1.70;99.90
4530;DHT22;2277;51.626;7.516;2023-02-26T04:13:31;1.70;99.90
4530;DHT22;2277;51.626;7.516;2023-02-26T04:15:57;1.70;99.90
4530;DHT22;2277;51.626;7.516;2023-02-26T04:18:22;1.70;99.90
4530;DHT22;2277;51.626;7.516;2023-02-26T04:20:48;1.70;99.90
4530;DHT22;2277;51.626;7.516;2023-02-26T04:23:14;1.70;99.90
4530;DHT22;2277;51.626;7.516;2023-02-26T04:25:40;1.70;99.90
4530;DHT22;2277;51.626;7.516;2023-02-26T04:28:05;1.70;99.90
4530;DHT22;2277;51.626;7.516;2023-02-26T04:30:31;1.70;99.90
4530;DHT22;2277;51.626;7.516;2023-02-26T04:32:57;1.70;99.90
4530;DHT22;2277;51.626;7.516;2023-02-26T04:35:22;1.60;99.90
4530;DHT22;2277;51.626;7.516;2023-02-26T04:37:48;1.70;99.90
4530;DHT22;2277;51.626;7.516;2023-02-26T04:40:14;1.70;99.90
4530;DHT22;2277;51.626;7.516;2023-02-26T04:42:40;1.70;99.90
4530;DHT22;2277;51.626;7.516;2023-02-26T04:45:06;1.70;99.90
4530;DHT22;2277;51.626;7.516;2023-02-26T04:47:31;1.70;99.90
4530;DHT22;2277;51.626;7.516;2023-02-26T04:49:57;1.60;99.90
4530;DHT22;2277;51.626;7.516;2023-02-26T04:52:22;1.60;99.90
4530;DHT22;2277;51.626;7.516;2023-02-26T04:54:48;1.60;99.90
4530;DHT22;2277;51.626;7.516;2023-02-26T04:57:15;1.60;99.90
4530;DHT22;2277;51.626;7.516;2023-02-26T04:59:40;1.60;99.90
4530;DHT22;2277;51.626;7.516;2023-02-26T05:02:06;1.60;99.90
4530;DHT22;2277;51.626;7.516;2023-02-26T05:04:32;1.60;99.90
4530;DHT22;2277;51.626;7.516;2023-02-26T05:06:57;1.50;99.90
4530;DHT22;2277;51.626;7.516;2023-02-26T05:09:23;1.50;99.90
4530;DHT22;2277;51.626;7.516;2023-02-26T05:11:48;1.50;99.90
4530;DHT22;2277;51.626;7.516;2023-02-26T05:14:15;1.40;99.90
4530;DHT22;2277;51.626;7.516;2023-02-26T05:16:41;1.50;99.90
4530;DHT22;2277;51.626;7.516;2023-02-26T05:19:06;1.40;99.90
4530;DHT22;2277;51.626;7.516;2023-02-26T05:21:32;1.30;99.90
4530;DHT22;2277;51.626;7.516;2023-02-26T05:23:58;1.30;99.90
4530;DHT22;2277;51.626;7.516;2023-02-26T05:26:23;1.20;99.90
4530;DHT22;2277;51.626;7.516;2023-02-26T05:28:49;1.10;99.90
4530;DHT22;2277;51.626;7.516;2023-02-26T05:31:14;1.10;99.90
4530;DHT22;2277;51.626;7.516;2023-02-26T05:33:41;1.10;99.90
4530;DHT22;2277;51.626;7.516;2023-02-26T05:36:07;1.00;99.90
4530;DHT22;2277;51.626;7.516;2023-02-26T05:38:33;1.00;99.90
4530;DHT22;2277;51.626;7.516;2023-02-26T05:40:59;1.00;99.90
4530;DHT22;2277;51.626;7.516;2023-02-26T05:43:26;1.00;99.90
4530;DHT22;2277;51.626;7.516;2023-02-26T05:45:52;1.10;99.90
4530;DHT22;2277;51.626;7.516;2023-02-26T05:48:18;1.10;99.90
4530;DHT22;2277;51.626;7.516;2023-02-26T05:50:45;1.10;99.90
4530;DHT22;2277;51.626;7.516;2023-02-26T05:53:11;1.10;99.90
4530;DHT22;2277;51.626;7.516;2023-02-26T05:55:36;1.20;99.90
4530;DHT22;2277;51.626;7.516;2023-02-26T05:58:02;1.20;99.90
4530;DHT22;2277;51.626;7.516;2023-02-26T06:00:27;1.10;99.90
4530;DHT22;2277;51.626;7.516;2023-02-26T06:02:53;1.10;99.90
4530;DHT22;2277;51.626;7.516;2023-02-26T06:05:19;1.10;99.90
4530;DHT22;2277;51.626;7.516;2023-02-26T06:07:44;1.10;99.90
4530;DHT22;2277;51.626;7.516;2023-02-26T06:10:11;1.10;99.90
4530;DHT22;2277;51.626;7.516;2023-02-26T06:12:37;1.20;99.90
4530;DHT22;2277;51.626;7.516;2023-02-26T06:15:03;1.10;99.90
4530;DHT22;2277;51.626;7.516;2023-02-26T06:17:29;1.00;99.90
4530;DHT22;2277;51.626;7.516;2023-02-26T06:19:55;1.00;99.90
4530;DHT22;2277;51.626;7.516;2023-02-26T06:22:21;1.00;99.90
4530;DHT22;2277;51.626;7.516;2023-02-26T06:24:46;1.00;99.90
4530;DHT22;2277;51.626;7.516;2023-02-26T06:27:12;0.90;99.90
4530;DHT22;2277;51.626;7.516;2023-02-26T06:29:38;0.90;99.90
4530;DHT22;2277;51.626;7.516;2023-02-26T06:32:04;0.90;99.90
4530;DHT22;2277;51.626;7.516;2023-02-26T06:34:30;0.80;99.90
4530;DHT22;2277;51.626;7.516;2023-02-26T06:36:55;0.80;99.90
4530;DHT22;2277;51.626;7.516;2023-02-26T06:39:21;0.80;99.90
4530;DHT22;2277;51.626;7.516;2023-02-26T06:41:47;0.80;99.90
4530;DHT22;2277;51.626;7.516;2023-02-26T06:44:12;0.80;99.90
4530;DHT22;2277;51.626;7.516;2023-02-26T06:46:38;0.80;99.90
4530;DHT22;2277;51.626;7.516;2023-02-26T06:49:04;0.70;99.90
4530;DHT22;2277;51.626;7.516;2023-02-26T06:51:29;0.80;99.90
4530;DHT22;2277;51.626;7.516;2023-02-26T06:53:56;0.80;99.90
4530;DHT22;2277;51.626;7.516;2023-02-26T06:56:22;0.80;99.90
4530;DHT22;2277;51.626;7.516;2023-02-26T06:58:48;0.80;99.90
4530;DHT22;2277;51.626;7.516;2023-02-26T07:01:14;0.80;99.90
4530;DHT22;2277;51.626;7.516;2023-02-26T07:03:40;0.80;99.90
4530;DHT22;2277;51.626;7.516;2023-02-26T07:06:06;0.80;99.90
4530;DHT22;2277;51.626;7.516;2023-02-26T07:08:33;0.80;99.90
4530;DHT22;2277;51.626;7.516;2023-02-26T07:10:59;0.90;99.90
4530;DHT22;2277;51.626;7.516;2023-02-26T07:13:25;0.90;99.90
4530;DHT22;2277;51.626;7.516;2023-02-26T07:15:51;0.90;99.90
4530;DHT22;2277;51.626;7.516;2023-02-26T07:18:16;0.90;99.90
4530;DHT22;2277;51.626;7.516;2023-02-26T07:20:42;0.90;99.90
4530;DHT22;2277;51.626;7.516;2023-02-26T07:23:09;0.90;99.90
4530;DHT22;2277;51.626;7.516;2023-02-26T07:25:35;1.00;99.90
4530;DHT22;2277;51.626;7.516;2023-02-26T07:28:02;1.00;99.90
4530;DHT22;2277;51.626;7.516;2023-02-26T07:30:28;1.10;99.90
4530;DHT22;2277;51.626;7.516;2023-02-26T07:32:53;1.10;99.90
4530;DHT22;2277;51.626;7.516;2023-02-26T07:35:19;1.20;99.90
4530;DHT22;2277;51.626;7.516;2023-02-26T07:37:45;1.20;99.90
4530;DHT22;2277;51.626;7.516;2023-02-26T07:40:11;1.30;99.90
4530;DHT22;2277;51.626;7.516;2023-02-26T07:42:37;1.50;99.90
4530;DHT22;2277;51.626;7.516;2023-02-26T07:45:03;1.60;99.90
4530;DHT22;2277;51.626;7.516;2023-02-26T07:47:28;1.80;99.90
4530;DHT22;2277;51.626;7.516;2023-02-26T07:49:55;2.00;99.90
4530;DHT22;2277;51.626;7.516;2023-02-26T07:52:21;2.10;99.90
4530;DHT22;2277;51.626;7.516;2023-02-26T07:54:46;2.20;99.90
4530;DHT22;2277;51.626;7.516;2023-02-26T07:57:12;2.40;99.90
4530;DHT22;2277;51.626;7.516;2023-02-26T07:59:38;2.50;99.90
4530;DHT22;2277;51.626;7.516;2023-02-26T08:02:04;2.70;99.90
4530;DHT22;2277;51.626;7.516;2023-02-26T08:04:29;2.80;99.90
4530;DHT22;2277;51.626;7.516;2023-02-26T08:06:58;3.00;99.90
4530;DHT22;2277;51.626;7.516;2023-02-26T08:09:25;3.20;99.90
4530;DHT22;2277;51.626;7.516;2023-02-26T08:11:51;3.30;99.90
4530;DHT22;2277;51.626;7.516;2023-02-26T08:14:17;3.40;99.90
4530;DHT22;2277;51.626;7.516;2023-02-26T08:16:42;3.60;99.90
4530;DHT22;2277;51.626;7.516;2023-02-26T08:19:08;3.70;99.90
4530;DHT22;2277;51.626;7.516;2023-02-26T08:21:34;3.70;99.90
4530;DHT22;2277;51.626;7.516;2023-02-26T08:24:00;3.90;99.90
4530;DHT22;2277;51.626;7.516;2023-02-26T08:26:25;4.20;99.90
4530;DHT22;2277;51.626;7.516;2023-02-26T08:28:51;4.20;99.90
4530;DHT22;2277;51.626;7.516;2023-02-26T08:31:17;4.30;99.90
4530;DHT22;2277;51.626;7.516;2023-02-26T08:33:43;4.60;99.90
4530;DHT22;2277;51.626;7.516;2023-02-26T08:36:10;4.70;99.90
4530;DHT22;2277;51.626;7.516;2023-02-26T08:38:35;4.90;99.90
4530;DHT22;2277;51.626;7.516;2023-02-26T08:41:01;5.10;99.90
4530;DHT22;2277;51.626;7.516;2023-02-26T08:43:27;5.30;99.90
4530;DHT22;2277;51.626;7.516;2023-02-26T08:45:55;5.50;99.90
4530;DHT22;2277;51.626;7.516;2023-02-26T08:48:22;5.60;99.90
4530;DHT22;2277;51.626;7.516;2023-02-26T08:50:47;5.90;99.90
4530;DHT22;2277;51.626;7.516;2023-02-26T08:53:13;6.00;99.90
4530;DHT22;2277;51.626;7.516;2023-02-26T08:55:39;6.20;99.90
4530;DHT22;2277;51.626;7.516;2023-02-26T08:58:04;6.40;99.90
4530;DHT22;2277;51.626;7.516;2023-02-26T09:00:30;6.50;99.90
4530;DHT22;2277;51.626;7.516;2023-02-26T09:02:56;6.50;99.90
4530;DHT22;2277;51.626;7.516;2023-02-26T09:05:22;6.60;99.90
4530;DHT22;2277;51.626;7.516;2023-02-26T09:07:47;6.70;99.90
4530;DHT22;2277;51.626;7.516;2023-02-26T09:10:14;6.90;99.90
4530;DHT22;2277;51.626;7.516;2023-02-26T09:12:40;7.00;99.90
4530;DHT22;2277;51.626;7.516;2023-02-26T09:15:08;7.20;99.90
4530;DHT22;2277;51.626;7.516;2023-02-26T09:17:34;7.40;99.90
4530;DHT22;2277;51.626;7.516;2023-02-26T09:20:01;7.60;99.90
4530;DHT22;2277;51.626;7.516;2023-02-26T09:22:27;7.90;99.90
4530;DHT22;2277;51.626;7.516;2023-02-26T09:24:53;7.90;99.90
4530;DHT22;2277;51.626;7.516;2023-02-26T09:27:18;8.10;99.90
4530;DHT22;2277;51.626;7.516;2023-02-26T09:29:44;8.30;99.90
4530;DHT22;2277;51.626;7.516;2023-02-26T09:32:10;8.40;99.90
4530;DHT22;2277;51.626;7.516;2023-02-26T09:34:36;8.50;99.90
4530;DHT22;2277;51.626;7.516;2023-02-26T09:37:04;8.70;99.90
4530;DHT22;2277;51.626;7.516;2023-02-26T09:39:30;8.80;99.90
4530;DHT22;2277;51.626;7.516;2023-02-26T09:42:24;8.80;99.90
4530;DHT22;2277;51.626;7.516;2023-02-26T09:44:43;8.90;99.90
4530;DHT22;2277;51.626;7.516;2023-02-26T09:47:20;8.90;99.90
4530;DHT22;2277;51.626;7.516;2023-02-26T09:50:04;9.00;99.90
4530;DHT22;2277;51.626;7.516;2023-02-26T09:52:53;9.00;99.90
4530;DHT22;2277;51.626;7.516;2023-02-26T09:55:40;9.20;99.90
4530;DHT22;2277;51.626;7.516;2023-02-26T09:58:26;9.50;99.30
4530;DHT22;2277;51.626;7.516;2023-02-26T10:01:00;9.50;98.40
4530;DHT22;2277;51.626;7.516;2023-02-26T10:04:09;9.80;96.30
4530;DHT22;2277;51.626;7.516;2023-02-26T10:12:24;10.10;96.60
4530;DHT22;2277;51.626;7.516;2023-02-26T10:15:10;10.10;94.60
4530;DHT22;2277;51.626;7.516;2023-02-26T10:20:49;9.90;93.40
4530;DHT22;2277;51.626;7.516;2023-02-26T10:23:23;9.90;93.40
4530;DHT22;2277;51.626;7.516;2023-02-26T10:31:26;10.20;91.80
4530;DHT22;2277;51.626;7.516;2023-02-26T10:37:14;10.40;92.70
4530;DHT22;2277;51.626;7.516;2023-02-26T10:39:26;10.60;93.00
4530;DHT22;2277;51.626;7.516;2023-02-26T10:41:52;10.70;90.60
4530;DHT22;2277;51.626;7.516;2023-02-26T10:44:26;10.60;89.10
4530;DHT22;2277;51.626;7.516;2023-02-26T10:46:56;10.90;89.90
4530;DHT22;2277;51.626;7.516;2023-02-26T10:49:35;11.10;88.60
4530;DHT22;2277;51.626;7.516;2023-02-26T10:52:12;10.70;80.00
4530;DHT22;2277;51.626;7.516;2023-02-26T10:54:57;10.70;80.00
4530;DHT22;2277;51.626;7.516;2023-02-26T10:57:29;10.80;80.50
4530;DHT22;2277;51.626;7.516;2023-02-26T10:59:58;10.70;80.90
4530;DHT22;2277;51.626;7.516;2023-02-26T11:02:41;10.80;79.60
4530;DHT22;2277;51.626;7.516;2023-02-26T11:05:19;10.80;77.00
4530;DHT22;2277;51.626;7.516;2023-02-26T11:07:48;10.90;75.50
4530;DHT22;2277;51.626;7.516;2023-02-26T11:10:21;10.70;75.20
4530;DHT22;2277;51.626;7.516;2023-02-26T11:12:47;10.80;78.60
4530;DHT22;2277;51.626;7.516;2023-02-26T11:15:16;10.90;78.20
4530;DHT22;2277;51.626;7.516;2023-02-26T11:17:45;11.10;78.60
4530;DHT22;2277;51.626;7.516;2023-02-26T11:22:57;10.60;72.80
4530;DHT22;2277;51.626;7.516;2023-02-26T11:25:27;10.70;72.70
4530;DHT22;2277;51.626;7.516;2023-02-26T11:28:06;10.50;71.70
4530;DHT22;2277;51.626;7.516;2023-02-26T11:30:36;10.30;72.30
4530;DHT22;2277;51.626;7.516;2023-02-26T11:33:22;10.30;72.20
4530;DHT22;2277;51.626;7.516;2023-02-26T11:35:49;10.40;73.30
4530;DHT22;2277;51.626;7.516;2023-02-26T11:38:21;10.30;77.90
4530;DHT22;2277;51.626;7.516;2023-02-26T11:40:52;10.20;72.30
4530;DHT22;2277;51.626;7.516;2023-02-26T11:43:19;10.00;71.80
4530;DHT22;2277;51.626;7.516;2023-02-26T11:45:50;9.90;76.50
4530;DHT22;2277;51.626;7.516;2023-02-26T11:48:28;9.90;74.30
4530;DHT22;2277;51.626;7.516;2023-02-26T11:50:58;10.10;77.50
4530;DHT22;2277;51.626;7.516;2023-02-26T11:53:34;10.30;78.70
4530;DHT22;2277;51.626;7.516;2023-02-26T11:56:03;10.50;79.70
4530;DHT22;2277;51.626;7.516;2023-02-26T11:58:35;10.70;80.20
4530;DHT22;2277;51.626;7.516;2023-02-26T12:01:03;10.80;77.20
4530;DHT22;2277;51.626;7.516;2023-02-26T12:03:32;10.80;70.90
4530;DHT22;2277;51.626;7.516;2023-02-26T12:05:59;10.90;71.80
4530;DHT22;2277;51.626;7.516;2023-02-26T12:08:37;10.90;68.30
4530;DHT22;2277;51.626;7.516;2023-02-26T12:16:25;11.00;67.60
4530;DHT22;2277;51.626;7.516;2023-02-26T12:19:35;10.90;68.50
4530;DHT22;2277;51.626;7.516;2023-02-26T12:21:50;11.00;68.70
4530;DHT22;2277;51.626;7.516;2023-02-26T12:27:47;11.80;70.70
4530;DHT22;2277;51.626;7.516;2023-02-26T12:33:17;12.20;65.80
4530;DHT22;2277;51.626;7.516;2023-02-26T12:48:01;11.70;64.70
4530;DHT22;2277;51.626;7.516;2023-02-26T12:50:54;11.60;64.70
4530;DHT22;2277;51.626;7.516;2023-02-26T12:58:58;11.80;67.40
4530;DHT22;2277;51.626;7.516;2023-02-26T13:01:39;11.70;66.80
4530;DHT22;2277;51.626;7.516;2023-02-26T13:10:43;11.40;63.20
4530;DHT22;2277;51.626;7.516;2023-02-26T13:16:31;11.10;63.70
4530;DHT22;2277;51.626;7.516;2023-02-26T13:21:59;11.50;64.20
4530;DHT22;2277;51.626;7.516;2023-02-26T13:24:46;11.80;67.80
4530;DHT22;2277;51.626;7.516;2023-02-26T13:27:14;11.90;62.70
4530;DHT22;2277;51.626;7.516;2023-02-26T13:29:46;11.90;60.70
4530;DHT22;2277;51.626;7.516;2023-02-26T13:32:20;11.90;61.20
4530;DHT22;2277;51.626;7.516;2023-02-26T13:34:59;12.00;59.80
4530;DHT22;2277;51.626;7.516;2023-02-26T13:42:52;12.20;59.90
4530;DHT22;2277;51.626;7.516;2023-02-26T13:49:12;12.20;60.10
4530;DHT22;2277;51.626;7.516;2023-02-26T13:51:44;12.50;60.00
4530;DHT22;2277;51.626;7.516;2023-02-26T14:07:10;11.70;61.70
4530;DHT22;2277;51.626;7.516;2023-02-26T14:09:46;11.90;62.00
4530;DHT22;2277;51.626;7.516;2023-02-26T14:17:46;12.20;60.00
4530;DHT22;2277;51.626;7.516;2023-02-26T14:22:48;12.50;59.70
4530;DHT22;2277;51.626;7.516;2023-02-26T14:25:29;12.20;58.00
4530;DHT22;2277;51.626;7.516;2023-02-26T14:33:57;12.10;57.60
4530;DHT22;2277;51.626;7.516;2023-02-26T14:39:06;12.10;57.80
4530;DHT22;2277;51.626;7.516;2023-02-26T14:41:38;12.20;58.80
4530;DHT22;2277;51.626;7.516;2023-02-26T14:44:18;12.30;57.40
4530;DHT22;2277;51.626;7.516;2023-02-26T14:46:47;12.20;56.80
4530;DHT22;2277;51.626;7.516;2023-02-26T14:49:25;11.50;56.50
4530;DHT22;2277;51.626;7.516;2023-02-26T14:52:16;11.50;57.20
4530;DHT22;2277;51.626;7.516;2023-02-26T14:57:52;11.80;59.00
4530;DHT22;2277;51.626;7.516;2023-02-26T15:00:24;11.90;59.10
4530;DHT22;2277;51.626;7.516;2023-02-26T15:23:49;12.30;58.10
4530;DHT22;2277;51.626;7.516;2023-02-26T15:28:50;12.10;59.00
4530;DHT22;2277;51.626;7.516;2023-02-26T15:31:19;12.10;58.50
4530;DHT22;2277;51.626;7.516;2023-02-26T15:33:47;12.10;57.20
4530;DHT22;2277;51.626;7.516;2023-02-26T15:36:16;11.80;56.80
4530;DHT22;2277;51.626;7.516;2023-02-26T15:38:48;11.70;57.60
4530;DHT22;2277;51.626;7.516;2023-02-26T15:41:15;11.50;57.50
4530;DHT22;2277;51.626;7.516;2023-02-26T15:43:48;11.50;58.60
4530;DHT22;2277;51.626;7.516;2023-02-26T15:46:14;11.40;57.80
4530;DHT22;2277;51.626;7.516;2023-02-26T15:48:41;11.20;58.20
4530;DHT22;2277;51.626;7.516;2023-02-26T15:51:12;11.00;58.50
4530;DHT22;2277;51.626;7.516;2023-02-26T15:53:52;10.90;59.40
4530;DHT22;2277;51.626;7.516;2023-02-26T15:56:22;10.80;60.20
4530;DHT22;2277;51.626;7.516;2023-02-26T15:58:55;10.70;59.60
4530;DHT22;2277;51.626;7.516;2023-02-26T16:01:25;10.60;59.60
4530;DHT22;2277;51.626;7.516;2023-02-26T16:03:55;10.50;58.80
4530;DHT22;2277;51.626;7.516;2023-02-26T16:06:28;10.40;58.50
4530;DHT22;2277;51.626;7.516;2023-02-26T16:08:54;10.40;59.30
4530;DHT22;2277;51.626;7.516;2023-02-26T16:11:20;10.30;59.80
4530;DHT22;2277;51.626;7.516;2023-02-26T16:13:49;10.20;60.00
4530;DHT22;2277;51.626;7.516;2023-02-26T16:16:40;10.10;59.40
4530;DHT22;2277;51.626;7.516;2023-02-26T16:19:12;9.90;59.90
4530;DHT22;2277;51.626;7.516;2023-02-26T16:21:39;9.90;61.00
4530;DHT22;2277;51.626;7.516;2023-02-26T16:24:08;9.80;60.80
4530;DHT22;2277;51.626;7.516;2023-02-26T16:26:46;9.70;61.40
4530;DHT22;2277;51.626;7.516;2023-02-26T16:29:20;9.70;63.30
4530;DHT22;2277;51.626;7.516;2023-02-26T16:31:51;9.70;62.60
4530;DHT22;2277;51.626;7.516;2023-02-26T16:34:39;9.60;62.60
4530;DHT22;2277;51.626;7.516;2023-02-26T16:40:21;9.40;64.70
4530;DHT22;2277;51.626;7.516;2023-02-26T16:47:47;9.20;65.30
4530;DHT22;2277;51.626;7.516;2023-02-26T16:50:20;9.10;65.90
4530;DHT22;2277;51.626;7.516;2023-02-26T16:53:10;9.00;67.40
4530;DHT22;2277;51.626;7.516;2023-02-26T16:55:37;9.00;67.00
4530;DHT22;2277;51.626;7.516;2023-02-26T16:58:06;8.80;67.20
4530;DHT22;2277;51.626;7.516;2023-02-26T17:00:34;8.70;67.30
4530;DHT22;2277;51.626;7.516;2023-02-26T17:03:14;8.70;67.70
4530;DHT22;2277;51.626;7.516;2023-02-26T17:05:56;8.60;67.40
4530;DHT22;2277;51.626;7.516;2023-02-26T17:08:40;8.50;68.60
4530;DHT22;2277;51.626;7.516;2023-02-26T17:11:07;8.50;68.80
4530;DHT22;2277;51.626;7.516;2023-02-26T17:13:34;8.40;69.20
4530;DHT22;2277;51.626;7.516;2023-02-26T17:16:02;8.40;70.30
4530;DHT22;2277;51.626;7.516;2023-02-26T17:18:29;8.30;71.30
4530;DHT22;2277;51.626;7.516;2023-02-26T17:20:55;8.30;71.60
4530;DHT22;2277;51.626;7.516;2023-02-26T17:23:25;8.20;71.70
4530;DHT22;2277;51.626;7.516;2023-02-26T17:25:53;8.20;71.40
4530;DHT22;2277;51.626;7.516;2023-02-26T17:28:26;8.10;71.70
4530;DHT22;2277;51.626;7.516;2023-02-26T17:30:53;8.00;73.40
4530;DHT22;2277;51.626;7.516;2023-02-26T17:33:19;8.00;74.40
4530;DHT22;2277;51.626;7.516;2023-02-26T17:35:46;8.00;75.00
4530;DHT22;2277;51.626;7.516;2023-02-26T17:38:13;8.00;75.20
4530;DHT22;2277;51.626;7.516;2023-02-26T17:40:42;7.90;74.50
4530;DHT22;2277;51.626;7.516;2023-02-26T17:43:07;7.90;75.70
4530;DHT22;2277;51.626;7.516;2023-02-26T17:45:35;7.80;76.00
4530;DHT22;2277;51.626;7.516;2023-02-26T17:48:02;7.90;77.30
4530;DHT22;2277;51.626;7.516;2023-02-26T17:53:09;7.90;77.90
4530;DHT22;2277;51.626;7.516;2023-02-26T17:55:36;7.90;77.80
4530;DHT22;2277;51.626;7.516;2023-02-26T17:58:04;7.90;78.20
4530;DHT22;2277;51.626;7.516;2023-02-26T18:00:30;7.90;78.20
4530;DHT22;2277;51.626;7.516;2023-02-26T18:02:57;7.90;80.00
4530;DHT22;2277;51.626;7.516;2023-02-26T18:05:24;7.90;80.90
4530;DHT22;2277;51.626;7.516;2023-02-26T18:07:52;7.80;80.00
4530;DHT22;2277;51.626;7.516;2023-02-26T18:10:21;7.80;80.80
4530;DHT22;2277;51.626;7.516;2023-02-26T18:12:47;7.80;80.80
4530;DHT22;2277;51.626;7.516;2023-02-26T18:15:14;7.80;81.10
4530;DHT22;2277;51.626;7.516;2023-02-26T18:17:40;7.70;80.70
4530;DHT22;2277;51.626;7.516;2023-02-26T18:20:06;7.70;80.70
4530;DHT22;2277;51.626;7.516;2023-02-26T18:22:34;7.70;81.30
4530;DHT22;2277;51.626;7.516;2023-02-26T18:24:59;7.70;81.30
4530;DHT22;2277;51.626;7.516;2023-02-26T18:27:26;7.60;81.90
4530;DHT22;2277;51.626;7.516;2023-02-26T18:29:52;7.50;82.40
4530;DHT22;2277;51.626;7.516;2023-02-26T18:32:22;7.50;82.70
4530;DHT22;2277;51.626;7.516;2023-02-26T18:34:48;7.50;83.60
4530;DHT22;2277;51.626;7.516;2023-02-26T18:37:17;7.50;83.50
4530;DHT22;2277;51.626;7.516;2023-02-26T18:39:43;7.50;83.90
4530;DHT22;2277;51.626;7.516;2023-02-26T18:42:29;7.50;84.00
4530;DHT22;2277;51.626;7.516;2023-02-26T18:44:57;7.50;83.60
4530;DHT22;2277;51.626;7.516;2023-02-26T18:47:22;7.50;84.60
4530;DHT22;2277;51.626;7.516;2023-02-26T18:49:49;7.40;84.80
4530;DHT22;2277;51.626;7.516;2023-02-26T18:52:15;7.40;85.00
4530;DHT22;2277;51.626;7.516;2023-02-26T18:54:40;7.40;85.70
4530;DHT22;2277;51.626;7.516;2023-02-26T18:57:07;7.40;86.30
4530;DHT22;2277;51.626;7.516;2023-02-26T18:59:34;7.40;86.30
4530;DHT22;2277;51.626;7.516;2023-02-26T19:02:01;7.40;86.30
4530;DHT22;2277;51.626;7.516;2023-02-26T19:04:27;7.40;86.80
4530;DHT22;2277;51.626;7.516;2023-02-26T19:06:52;7.40;87.40
4530;DHT22;2277;51.626;7.516;2023-02-26T19:09:18;7.40;87.70
4530;DHT22;2277;51.626;7.516;2023-02-26T19:11:43;7.40;88.40
4530;DHT22;2277;51.626;7.516;2023-02-26T19:14:09;7.40;88.90
4530;DHT22;2277;51.626;7.516;2023-02-26T19:16:35;7.40;88.30
4530;DHT22;2277;51.626;7.516;2023-02-26T19:19:04;7.40;88.50
4530;DHT22;2277;51.626;7.516;2023-02-26T19:21:32;7.40;89.40
4530;DHT22;2277;51.626;7.516;2023-02-26T19:24:04;7.40;90.00
4530;DHT22;2277;51.626;7.516;2023-02-26T19:26:30;7.30;90.20
4530;DHT22;2277;51.626;7.516;2023-02-26T19:28:55;7.30;90.40
4530;DHT22;2277;51.626;7.516;2023-02-26T19:31:21;7.30;91.00
4530;DHT22;2277;51.626;7.516;2023-02-26T19:33:47;7.30;91.50
4530;DHT22;2277;51.626;7.516;2023-02-26T19:36:12;7.20;91.60
4530;DHT22;2277;51.626;7.516;2023-02-26T19:38:38;7.20;91.80
4530;DHT22;2277;51.626;7.516;2023-02-26T19:41:04;7.20;92.30
4530;DHT22;2277;51.626;7.516;2023-02-26T19:43:29;7.20;92.30